sensor_id;sensor_type;location;lat;lon;timestamp;P1;durP1;ratioP1;P2;durP2;ratioP2
41923;SDS011;27613;48.116;11.656;2022-08-01T00:01:49;2.38;;;1.38;;
41923;SDS011;27613;48.116;11.656;2022-08-01T00:04:15;4.47;;;1.42;;
41923;SDS011;27613;48.116;11.656;2022-08-01T00:06:41;2.05;;;1.60;;
41923;SDS011;27613;48.116;11.656;2022-08-01T00:09:06;2.75;;;1.50;;
41923;SDS011;27613;48.116;11.656;2022-08-01T00:11:32;4.53;;;1.65;;
41923;SDS011;27613;48.116;11.656;2022-08-01T00:13:57;1.88;;;1.33;;
41923;SDS011;27613;48.116;11.656;2022-08-01T00:16:23;3.80;;;1.52;;
41923;SDS011;27613;48.116;11.656;2022-08-01T00:18:49;3.60;;;1.52;;
41923;SDS011;27613;48.116;11.656;2022-08-01T00:21:16;3.13;;;1.60;;
41923;SDS011;27613;48.116;11.656;2022-08-01T00:23:42;5.05;;;1.58;;
41923;SDS011;27613;48.116;11.656;2022-08-01T00:26:10;4.35;;;1.75;;
41923;SDS011;27613;48.116;11.656;2022-08-01T00:28:37;2.42;;;1.48;;
41923;SDS011;27613;48.116;11.656;2022-08-01T00:31:02;3.72;;;1.75;;
41923;SDS011;27613;48.116;11.656;2022-08-01T00:33:28;2.55;;;1.52;;
41923;SDS011;27613;48.116;11.656;2022-08-01T00:35:53;2.70;;;1.42;;
41923;SDS011;27613;48.116;11.656;2022-08-01T00:38:19;3.58;;;1.38;;
41923;SDS011;27613;48.116;11.656;2022-08-01T00:40:45;2.72;;;1.50;;
41923;SDS011;27613;48.116;11.656;2022-08-01T00:43:11;2.33;;;1.38;;
41923;SDS011;27613;48.116;11.656;2022-08-01T00:45:36;2.55;;;1.30;;
41923;SDS011;27613;48.116;11.656;2022-08-01T00:48:02;2.20;;;1.27;;
41923;SDS011;27613;48.116;11.656;2022-08-01T00:50:28;2.33;;;1.33;;
41923;SDS011;27613;48.116;11.656;2022-08-01T00:52:54;1.92;;;1.38;;
41923;SDS011;27613;48.116;11.656;2022-08-01T00:55:20;2.45;;;1.70;;
41923;SDS011;27613;48.116;11.656;2022-08-01T00:57:46;2.97;;;1.27;;
41923;SDS011;27613;48.116;11.656;2022-08-01T01:00:13;1.92;;;1.45;;
41923;SDS011;27613;48.116;11.656;2022-08-01T01:02:39;3.08;;;1.70;;
41923;SDS011;27613;48.116;11.656;2022-08-01T01:05:05;6.18;;;1.52;;
41923;SDS011;27613;48.116;11.656;2022-08-01T01:10:14;3.53;;;1.63;;
41923;SDS011;27613;48.116;11.656;2022-08-01T01:12:47;2.58;;;1.55;;
41923;SDS011;27613;48.116;11.656;2022-08-01T01:18:47;2.00;;;1.35;;
41923;SDS011;27613;48.116;11.656;2022-08-01T01:31:51;7.88;;;2.50;;
41923;SDS011;27613;48.116;11.656;2022-08-01T01:34:28;4.95;;;1.60;;
41923;SDS011;27613;48.116;11.656;2022-08-01T01:36:55;3.00;;;1.50;;
41923;SDS011;27613;48.116;11.656;2022-08-01T01:39:23;1.98;;;1.25;;
41923;SDS011;27613;48.116;11.656;2022-08-01T01:41:51;2.90;;;1.60;;
41923;SDS011;27613;48.116;11.656;2022-08-01T01:44:19;2.13;;;1.38;;
41923;SDS011;27613;48.116;11.656;2022-08-01T01:46:44;3.28;;;1.63;;
41923;SDS011;27613;48.116;11.656;2022-08-01T01:49:12;3.45;;;1.80;;
41923;SDS011;27613;48.116;11.656;2022-08-01T01:51:38;2.90;;;1.60;;
41923;SDS011;27613;48.116;11.656;2022-08-01T01:54:07;2.42;;;1.27;;
41923;SDS011;27613;48.116;11.656;2022-08-01T01:56:34;1.88;;;1.30;;
41923;SDS011;27613;48.116;11.656;2022-08-01T01:59:13;2.20;;;1.55;;
41923;SDS011;27613;48.116;11.656;2022-08-01T02:01:44;2.58;;;1.50;;
41923;SDS011;27613;48.116;11.656;2022-08-01T02:04:16;1.92;;;1.35;;
41923;SDS011;27613;48.116;11.656;2022-08-01T02:06:43;2.80;;;1.60;;
41923;SDS011;27613;48.116;11.656;2022-08-01T02:09:11;3.25;;;1.65;;
41923;SDS011;27613;48.116;11.656;2022-08-01T02:11:46;2.70;;;1.52;;
41923;SDS011;27613;48.116;11.656;2022-08-01T02:14:16;2.97;;;1.52;;
41923;SDS011;27613;48.116;11.656;2022-08-01T02:16:46;4.70;;;1.45;;
41923;SDS011;27613;48.116;11.656;2022-08-01T02:19:13;2.90;;;1.45;;
41923;SDS011;27613;48.116;11.656;2022-08-01T02:24:09;3.22;;;1.58;;
41923;SDS011;27613;48.116;11.656;2022-08-01T02:26:54;3.60;;;1.80;;
41923;SDS011;27613;48.116;11.656;2022-08-01T02:29:32;4.72;;;1.50;;
41923;SDS011;27613;48.116;11.656;2022-08-01T02:32:02;5.03;;;1.52;;
41923;SDS011;27613;48.116;11.656;2022-08-01T02:34:31;8.32;;;2.03;;
41923;SDS011;27613;48.116;11.656;2022-08-01T02:37:00;2.30;;;1.45;;
41923;SDS011;27613;48.116;11.656;2022-08-01T02:39:28;2.92;;;1.55;;
41923;SDS011;27613;48.116;11.656;2022-08-01T02:41:57;3.05;;;1.65;;
41923;SDS011;27613;48.116;11.656;2022-08-01T02:44:32;2.00;;;1.42;;
41923;SDS011;27613;48.116;11.656;2022-08-01T02:47:00;2.35;;;1.40;;
41923;SDS011;27613;48.116;11.656;2022-08-01T02:49:33;5.53;;;1.73;;
41923;SDS011;27613;48.116;11.656;2022-08-01T02:52:04;4.13;;;1.70;;
41923;SDS011;27613;48.116;11.656;2022-08-01T02:54:32;2.67;;;1.60;;
41923;SDS011;27613;48.116;11.656;2022-08-01T02:57:00;4.60;;;1.80;;
41923;SDS011;27613;48.116;11.656;2022-08-01T02:59:28;1.92;;;1.50;;
41923;SDS011;27613;48.116;11.656;2022-08-01T03:01:55;2.58;;;1.30;;
41923;SDS011;27613;48.116;11.656;2022-08-01T03:04:23;2.92;;;1.40;;
41923;SDS011;27613;48.116;11.656;2022-08-01T03:06:50;2.35;;;1.50;;
41923;SDS011;27613;48.116;11.656;2022-08-01T03:09:18;4.00;;;1.85;;
41923;SDS011;27613;48.116;11.656;2022-08-01T03:11:44;3.70;;;1.77;;
41923;SDS011;27613;48.116;11.656;2022-08-01T03:14:12;2.95;;;1.80;;
41923;SDS011;27613;48.116;11.656;2022-08-01T03:16:39;4.90;;;1.38;;
41923;SDS011;27613;48.116;11.656;2022-08-01T03:19:07;3.30;;;1.60;;
41923;SDS011;27613;48.116;11.656;2022-08-01T03:21:34;2.58;;;1.42;;
41923;SDS011;27613;48.116;11.656;2022-08-01T03:24:02;2.58;;;1.48;;
41923;SDS011;27613;48.116;11.656;2022-08-01T03:26:31;2.25;;;1.48;;
41923;SDS011;27613;48.116;11.656;2022-08-01T03:29:01;2.65;;;1.55;;
41923;SDS011;27613;48.116;11.656;2022-08-01T03:31:36;3.90;;;1.85;;
41923;SDS011;27613;48.116;11.656;2022-08-01T03:34:03;5.63;;;2.15;;
41923;SDS011;27613;48.116;11.656;2022-08-01T03:36:30;2.88;;;1.63;;
41923;SDS011;27613;48.116;11.656;2022-08-01T03:39:00;4.72;;;2.40;;
41923;SDS011;27613;48.116;11.656;2022-08-01T03:41:29;3.95;;;2.10;;
41923;SDS011;27613;48.116;11.656;2022-08-01T03:44:07;3.70;;;1.87;;
41923;SDS011;27613;48.116;11.656;2022-08-01T03:46:40;3.38;;;1.80;;
41923;SDS011;27613;48.116;11.656;2022-08-01T03:49:31;3.38;;;1.98;;
41923;SDS011;27613;48.116;11.656;2022-08-01T03:51:56;3.22;;;1.75;;
41923;SDS011;27613;48.116;11.656;2022-08-01T03:54:27;2.55;;;1.67;;
41923;SDS011;27613;48.116;11.656;2022-08-01T03:57:03;3.42;;;1.88;;
41923;SDS011;27613;48.116;11.656;2022-08-01T03:59:29;3.40;;;1.80;;
41923;SDS011;27613;48.116;11.656;2022-08-01T04:01:56;4.43;;;1.90;;
41923;SDS011;27613;48.116;11.656;2022-08-01T04:04:23;3.63;;;1.70;;
41923;SDS011;27613;48.116;11.656;2022-08-01T04:06:50;1.65;;;1.35;;
41923;SDS011;27613;48.116;11.656;2022-08-01T04:09:19;2.58;;;1.70;;
41923;SDS011;27613;48.116;11.656;2022-08-01T04:11:44;2.88;;;1.60;;
41923;SDS011;27613;48.116;11.656;2022-08-01T04:14:10;2.90;;;1.58;;
41923;SDS011;27613;48.116;11.656;2022-08-01T04:16:36;2.97;;;1.90;;
41923;SDS011;27613;48.116;11.656;2022-08-01T04:19:02;2.50;;;1.40;;
41923;SDS011;27613;48.116;11.656;2022-08-01T04:21:28;2.80;;;1.60;;
41923;SDS011;27613;48.116;11.656;2022-08-01T04:24:02;3.03;;;1.75;;
41923;SDS011;27613;48.116;11.656;2022-08-01T04:26:34;4.38;;;1.58;;
41923;SDS011;27613;48.116;11.656;2022-08-01T04:29:02;3.17;;;1.67;;
41923;SDS011;27613;48.116;11.656;2022-08-01T04:31:30;4.20;;;1.77;;
41923;SDS011;27613;48.116;11.656;2022-08-01T04:33:57;2.90;;;1.67;;
41923;SDS011;27613;48.116;11.656;2022-08-01T04:36:25;3.17;;;1.80;;
41923;SDS011;27613;48.116;11.656;2022-08-01T04:38:55;2.38;;;1.63;;
41923;SDS011;27613;48.116;11.656;2022-08-01T04:41:24;3.35;;;2.08;;
41923;SDS011;27613;48.116;11.656;2022-08-01T04:43:50;3.35;;;1.90;;
41923;SDS011;27613;48.116;11.656;2022-08-01T04:46:17;4.30;;;2.00;;
41923;SDS011;27613;48.116;11.656;2022-08-01T04:48:47;4.35;;;1.98;;
41923;SDS011;27613;48.116;11.656;2022-08-01T04:51:14;16.90;;;1.60;;
41923;SDS011;27613;48.116;11.656;2022-08-01T04:53:41;3.17;;;1.83;;
41923;SDS011;27613;48.116;11.656;2022-08-01T04:56:07;2.88;;;1.70;;
41923;SDS011;27613;48.116;11.656;2022-08-01T04:58:33;5.78;;;1.75;;
41923;SDS011;27613;48.116;11.656;2022-08-01T05:00:59;3.78;;;1.85;;
41923;SDS011;27613;48.116;11.656;2022-08-01T05:03:25;4.78;;;1.92;;
41923;SDS011;27613;48.116;11.656;2022-08-01T05:05:50;2.83;;;1.80;;
41923;SDS011;27613;48.116;11.656;2022-08-01T05:08:16;2.33;;;1.70;;
41923;SDS011;27613;48.116;11.656;2022-08-01T05:10:41;2.30;;;1.60;;
41923;SDS011;27613;48.116;11.656;2022-08-01T05:13:07;3.00;;;1.58;;
41923;SDS011;27613;48.116;11.656;2022-08-01T05:15:36;3.85;;;1.60;;
41923;SDS011;27613;48.116;11.656;2022-08-01T05:18:02;2.80;;;1.80;;
41923;SDS011;27613;48.116;11.656;2022-08-01T05:20:28;4.10;;;2.22;;
41923;SDS011;27613;48.116;11.656;2022-08-01T05:22:54;4.53;;;1.70;;
41923;SDS011;27613;48.116;11.656;2022-08-01T05:25:19;2.47;;;1.65;;
41923;SDS011;27613;48.116;11.656;2022-08-01T05:27:45;2.78;;;1.70;;
41923;SDS011;27613;48.116;11.656;2022-08-01T05:30:11;2.97;;;1.70;;
41923;SDS011;27613;48.116;11.656;2022-08-01T05:32:37;2.70;;;1.63;;
41923;SDS011;27613;48.116;11.656;2022-08-01T05:35:03;4.47;;;2.17;;
41923;SDS011;27613;48.116;11.656;2022-08-01T05:37:29;3.10;;;1.70;;
41923;SDS011;27613;48.116;11.656;2022-08-01T05:39:55;2.67;;;1.80;;
41923;SDS011;27613;48.116;11.656;2022-08-01T05:42:20;4.55;;;1.77;;
41923;SDS011;27613;48.116;11.656;2022-08-01T05:44:46;2.13;;;1.70;;
41923;SDS011;27613;48.116;11.656;2022-08-01T05:47:12;2.85;;;1.80;;
41923;SDS011;27613;48.116;11.656;2022-08-01T05:49:38;2.53;;;1.70;;
41923;SDS011;27613;48.116;11.656;2022-08-01T05:52:04;2.67;;;1.63;;
41923;SDS011;27613;48.116;11.656;2022-08-01T05:54:30;5.40;;;2.00;;
41923;SDS011;27613;48.116;11.656;2022-08-01T05:56:55;3.53;;;1.88;;
41923;SDS011;27613;48.116;11.656;2022-08-01T05:59:24;5.22;;;1.70;;
41923;SDS011;27613;48.116;11.656;2022-08-01T06:01:50;9.10;;;2.10;;
41923;SDS011;27613;48.116;11.656;2022-08-01T06:04:16;5.78;;;1.83;;
41923;SDS011;27613;48.116;11.656;2022-08-01T06:06:42;4.85;;;2.20;;
41923;SDS011;27613;48.116;11.656;2022-08-01T06:09:07;2.33;;;1.45;;
41923;SDS011;27613;48.116;11.656;2022-08-01T06:11:33;4.95;;;1.80;;
41923;SDS011;27613;48.116;11.656;2022-08-01T06:13:58;2.22;;;1.52;;
41923;SDS011;27613;48.116;11.656;2022-08-01T06:16:24;2.63;;;1.73;;
41923;SDS011;27613;48.116;11.656;2022-08-01T06:18:49;3.28;;;1.67;;
41923;SDS011;27613;48.116;11.656;2022-08-01T06:21:15;3.67;;;1.90;;
41923;SDS011;27613;48.116;11.656;2022-08-01T06:23:40;2.47;;;1.50;;
41923;SDS011;27613;48.116;11.656;2022-08-01T06:26:07;2.88;;;1.83;;
41923;SDS011;27613;48.116;11.656;2022-08-01T06:28:32;3.03;;;1.85;;
41923;SDS011;27613;48.116;11.656;2022-08-01T06:30:58;3.05;;;1.83;;
41923;SDS011;27613;48.116;11.656;2022-08-01T06:33:24;1.90;;;1.50;;
41923;SDS011;27613;48.116;11.656;2022-08-01T06:35:50;3.22;;;1.92;;
41923;SDS011;27613;48.116;11.656;2022-08-01T06:38:16;4.18;;;1.50;;
41923;SDS011;27613;48.116;11.656;2022-08-01T06:40:41;2.97;;;2.00;;
41923;SDS011;27613;48.116;11.656;2022-08-01T06:43:07;3.95;;;2.08;;
41923;SDS011;27613;48.116;11.656;2022-08-01T06:45:32;3.85;;;2.20;;
41923;SDS011;27613;48.116;11.656;2022-08-01T06:47:58;2.67;;;1.70;;
41923;SDS011;27613;48.116;11.656;2022-08-01T06:50:24;4.07;;;1.90;;
41923;SDS011;27613;48.116;11.656;2022-08-01T06:52:49;2.28;;;1.70;;
41923;SDS011;27613;48.116;11.656;2022-08-01T06:55:15;2.13;;;1.67;;
41923;SDS011;27613;48.116;11.656;2022-08-01T06:57:47;4.68;;;2.38;;
41923;SDS011;27613;48.116;11.656;2022-08-01T07:00:15;2.88;;;1.77;;
41923;SDS011;27613;48.116;11.656;2022-08-01T07:02:44;2.13;;;1.55;;
41923;SDS011;27613;48.116;11.656;2022-08-01T07:05:10;2.53;;;1.58;;
41923;SDS011;27613;48.116;11.656;2022-08-01T07:07:36;2.80;;;1.77;;
41923;SDS011;27613;48.116;11.656;2022-08-01T07:10:02;4.07;;;1.83;;
41923;SDS011;27613;48.116;11.656;2022-08-01T07:12:28;3.53;;;1.98;;
41923;SDS011;27613;48.116;11.656;2022-08-01T07:14:54;3.15;;;1.83;;
41923;SDS011;27613;48.116;11.656;2022-08-01T07:17:19;4.30;;;2.22;;
41923;SDS011;27613;48.116;11.656;2022-08-01T07:19:45;4.05;;;1.90;;
41923;SDS011;27613;48.116;11.656;2022-08-01T07:22:12;3.15;;;1.73;;
41923;SDS011;27613;48.116;11.656;2022-08-01T07:24:39;3.83;;;2.00;;
41923;SDS011;27613;48.116;11.656;2022-08-01T07:27:05;2.35;;;1.77;;
41923;SDS011;27613;48.116;11.656;2022-08-01T07:29:30;2.88;;;1.98;;
41923;SDS011;27613;48.116;11.656;2022-08-01T07:31:56;2.80;;;1.83;;
41923;SDS011;27613;48.116;11.656;2022-08-01T07:34:23;7.28;;;2.17;;
41923;SDS011;27613;48.116;11.656;2022-08-01T07:36:50;2.90;;;1.88;;
41923;SDS011;27613;48.116;11.656;2022-08-01T07:39:16;2.53;;;1.88;;
41923;SDS011;27613;48.116;11.656;2022-08-01T07:41:42;2.25;;;1.75;;
41923;SDS011;27613;48.116;11.656;2022-08-01T07:44:07;2.45;;;1.60;;
41923;SDS011;27613;48.116;11.656;2022-08-01T07:46:33;2.90;;;2.05;;
41923;SDS011;27613;48.116;11.656;2022-08-01T07:48:59;2.50;;;1.90;;
41923;SDS011;27613;48.116;11.656;2022-08-01T07:51:24;3.22;;;2.08;;
41923;SDS011;27613;48.116;11.656;2022-08-01T07:53:50;3.80;;;1.98;;
41923;SDS011;27613;48.116;11.656;2022-08-01T07:56:15;2.47;;;1.67;;
41923;SDS011;27613;48.116;11.656;2022-08-01T07:58:41;2.63;;;2.00;;
41923;SDS011;27613;48.116;11.656;2022-08-01T08:01:07;15.50;;;1.90;;
41923;SDS011;27613;48.116;11.656;2022-08-01T08:03:32;2.97;;;1.90;;
41923;SDS011;27613;48.116;11.656;2022-08-01T08:05:58;4.03;;;2.38;;
41923;SDS011;27613;48.116;11.656;2022-08-01T08:08:23;4.15;;;2.10;;
41923;SDS011;27613;48.116;11.656;2022-08-01T08:10:49;4.10;;;1.83;;
41923;SDS011;27613;48.116;11.656;2022-08-01T08:13:15;3.25;;;2.03;;
41923;SDS011;27613;48.116;11.656;2022-08-01T08:15:41;2.60;;;2.03;;
41923;SDS011;27613;48.116;11.656;2022-08-01T08:18:06;4.82;;;2.22;;
41923;SDS011;27613;48.116;11.656;2022-08-01T08:20:32;3.83;;;1.58;;
41923;SDS011;27613;48.116;11.656;2022-08-01T08:22:57;2.88;;;1.90;;
41923;SDS011;27613;48.116;11.656;2022-08-01T08:25:23;3.38;;;1.73;;
41923;SDS011;27613;48.116;11.656;2022-08-01T08:27:49;2.45;;;1.80;;
41923;SDS011;27613;48.116;11.656;2022-08-01T08:30:15;2.58;;;1.60;;
41923;SDS011;27613;48.116;11.656;2022-08-01T08:32:41;3.28;;;1.90;;
41923;SDS011;27613;48.116;11.656;2022-08-01T08:35:07;2.38;;;1.58;;
41923;SDS011;27613;48.116;11.656;2022-08-01T08:37:34;4.25;;;2.20;;
41923;SDS011;27613;48.116;11.656;2022-08-01T08:40:00;2.35;;;1.80;;
41923;SDS011;27613;48.116;11.656;2022-08-01T08:42:26;3.45;;;1.95;;
41923;SDS011;27613;48.116;11.656;2022-08-01T08:44:52;4.00;;;2.03;;
41923;SDS011;27613;48.116;11.656;2022-08-01T08:47:19;6.40;;;2.13;;
41923;SDS011;27613;48.116;11.656;2022-08-01T08:49:47;3.63;;;1.92;;
41923;SDS011;27613;48.116;11.656;2022-08-01T08:52:14;3.80;;;1.95;;
41923;SDS011;27613;48.116;11.656;2022-08-01T08:54:42;3.28;;;1.77;;
41923;SDS011;27613;48.116;11.656;2022-08-01T08:57:09;2.35;;;1.70;;
41923;SDS011;27613;48.116;11.656;2022-08-01T08:59:38;2.88;;;1.65;;
41923;SDS011;27613;48.116;11.656;2022-08-01T09:02:04;3.75;;;1.80;;
41923;SDS011;27613;48.116;11.656;2022-08-01T09:04:30;2.45;;;1.77;;
41923;SDS011;27613;48.116;11.656;2022-08-01T09:06:56;4.80;;;1.80;;
41923;SDS011;27613;48.116;11.656;2022-08-01T09:09:22;2.95;;;1.70;;
41923;SDS011;27613;48.116;11.656;2022-08-01T09:11:48;2.70;;;1.75;;
41923;SDS011;27613;48.116;11.656;2022-08-01T09:14:18;3.67;;;1.88;;
41923;SDS011;27613;48.116;11.656;2022-08-01T09:16:58;3.63;;;2.22;;
41923;SDS011;27613;48.116;11.656;2022-08-01T09:19:41;3.22;;;1.83;;
41923;SDS011;27613;48.116;11.656;2022-08-01T09:22:12;2.80;;;1.70;;
41923;SDS011;27613;48.116;11.656;2022-08-01T09:24:42;2.13;;;1.45;;
41923;SDS011;27613;48.116;11.656;2022-08-01T09:27:30;3.88;;;2.08;;
41923;SDS011;27613;48.116;11.656;2022-08-01T09:30:05;3.08;;;1.65;;
41923;SDS011;27613;48.116;11.656;2022-08-01T09:32:35;2.25;;;1.50;;
41923;SDS011;27613;48.116;11.656;2022-08-01T09:37:47;3.08;;;1.40;;
41923;SDS011;27613;48.116;11.656;2022-08-01T09:40:12;2.80;;;1.48;;
41923;SDS011;27613;48.116;11.656;2022-08-01T09:42:38;1.60;;;1.30;;
41923;SDS011;27613;48.116;11.656;2022-08-01T09:45:03;1.83;;;1.15;;
41923;SDS011;27613;48.116;11.656;2022-08-01T09:47:39;2.30;;;1.27;;
41923;SDS011;27613;48.116;11.656;2022-08-01T09:50:05;3.45;;;1.40;;
41923;SDS011;27613;48.116;11.656;2022-08-01T09:52:32;2.38;;;1.30;;
41923;SDS011;27613;48.116;11.656;2022-08-01T09:54:58;1.98;;;1.10;;
41923;SDS011;27613;48.116;11.656;2022-08-01T09:57:26;1.95;;;1.10;;
41923;SDS011;27613;48.116;11.656;2022-08-01T09:59:53;1.45;;;1.10;;
41923;SDS011;27613;48.116;11.656;2022-08-01T10:02:36;2.17;;;1.27;;
41923;SDS011;27613;48.116;11.656;2022-08-01T10:05:04;2.53;;;1.20;;
41923;SDS011;27613;48.116;11.656;2022-08-01T10:07:32;1.88;;;1.13;;
41923;SDS011;27613;48.116;11.656;2022-08-01T10:10:08;1.38;;;1.08;;
41923;SDS011;27613;48.116;11.656;2022-08-01T10:12:38;1.85;;;1.10;;
41923;SDS011;27613;48.116;11.656;2022-08-01T10:15:06;1.65;;;1.05;;
41923;SDS011;27613;48.116;11.656;2022-08-01T10:17:33;2.25;;;1.02;;
41923;SDS011;27613;48.116;11.656;2022-08-01T10:19:59;3.25;;;1.27;;
41923;SDS011;27613;48.116;11.656;2022-08-01T10:22:27;1.60;;;1.20;;
41923;SDS011;27613;48.116;11.656;2022-08-01T10:24:56;2.05;;;1.20;;
41923;SDS011;27613;48.116;11.656;2022-08-01T10:27:26;1.50;;;0.98;;
41923;SDS011;27613;48.116;11.656;2022-08-01T10:29:58;1.67;;;1.13;;
41923;SDS011;27613;48.116;11.656;2022-08-01T10:32:33;2.55;;;1.17;;
41923;SDS011;27613;48.116;11.656;2022-08-01T10:35:05;2.40;;;1.10;;
41923;SDS011;27613;48.116;11.656;2022-08-01T10:37:33;0.90;;;0.90;;
41923;SDS011;27613;48.116;11.656;2022-08-01T10:40:00;1.05;;;0.90;;
41923;SDS011;27613;48.116;11.656;2022-08-01T10:42:26;1.48;;;0.90;;
41923;SDS011;27613;48.116;11.656;2022-08-01T10:44:52;2.35;;;0.93;;
41923;SDS011;27613;48.116;11.656;2022-08-01T10:47:27;1.45;;;0.93;;
41923;SDS011;27613;48.116;11.656;2022-08-01T10:58:12;1.15;;;1.00;;
41923;SDS011;27613;48.116;11.656;2022-08-01T11:00:37;1.55;;;1.00;;
41923;SDS011;27613;48.116;11.656;2022-08-01T11:03:03;1.33;;;1.10;;
41923;SDS011;27613;48.116;11.656;2022-08-01T11:05:33;1.20;;;1.00;;
41923;SDS011;27613;48.116;11.656;2022-08-01T11:08:03;2.40;;;1.10;;
41923;SDS011;27613;48.116;11.656;2022-08-01T11:10:37;2.47;;;1.60;;
41923;SDS011;27613;48.116;11.656;2022-08-01T11:13:06;1.58;;;1.00;;
41923;SDS011;27613;48.116;11.656;2022-08-01T11:15:36;1.45;;;1.00;;
41923;SDS011;27613;48.116;11.656;2022-08-01T11:18:49;1.48;;;1.00;;
41923;SDS011;27613;48.116;11.656;2022-08-01T11:20:55;1.55;;;1.00;;
41923;SDS011;27613;48.116;11.656;2022-08-01T11:23:29;1.27;;;0.90;;
41923;SDS011;27613;48.116;11.656;2022-08-01T11:28:26;2.22;;;0.95;;
41923;SDS011;27613;48.116;11.656;2022-08-01T11:30:53;1.55;;;0.82;;
41923;SDS011;27613;48.116;11.656;2022-08-01T11:38:35;0.90;;;0.77;;
41923;SDS011;27613;48.116;11.656;2022-08-01T11:41:22;1.70;;;1.13;;
41923;SDS011;27613;48.116;11.656;2022-08-01T11:55:05;1.60;;;1.20;;
41923;SDS011;27613;48.116;11.656;2022-08-01T11:57:32;2.05;;;1.35;;
41923;SDS011;27613;48.116;11.656;2022-08-01T12:00:17;1.05;;;0.70;;
41923;SDS011;27613;48.116;11.656;2022-08-01T12:02:44;2.53;;;1.10;;
41923;SDS011;27613;48.116;11.656;2022-08-01T12:05:11;1.08;;;0.90;;
41923;SDS011;27613;48.116;11.656;2022-08-01T12:07:40;1.15;;;0.93;;
41923;SDS011;27613;48.116;11.656;2022-08-01T12:12:43;1.98;;;1.25;;
41923;SDS011;27613;48.116;11.656;2022-08-01T12:15:13;1.48;;;0.80;;
41923;SDS011;27613;48.116;11.656;2022-08-01T12:17:40;2.70;;;1.00;;
41923;SDS011;27613;48.116;11.656;2022-08-01T12:20:12;2.92;;;0.90;;
41923;SDS011;27613;48.116;11.656;2022-08-01T12:22:40;7.63;;;1.00;;
41923;SDS011;27613;48.116;11.656;2022-08-01T12:27:37;2.05;;;0.88;;
41923;SDS011;27613;48.116;11.656;2022-08-01T12:30:07;1.08;;;0.80;;
41923;SDS011;27613;48.116;11.656;2022-08-01T12:32:36;2.65;;;1.00;;
41923;SDS011;27613;48.116;11.656;2022-08-01T12:35:05;2.50;;;0.90;;
41923;SDS011;27613;48.116;11.656;2022-08-01T12:37:34;1.10;;;0.70;;
41923;SDS011;27613;48.116;11.656;2022-08-01T12:42:41;0.90;;;0.65;;
41923;SDS011;27613;48.116;11.656;2022-08-01T12:45:09;1.73;;;0.90;;
41923;SDS011;27613;48.116;11.656;2022-08-01T12:47:36;1.35;;;0.82;;
41923;SDS011;27613;48.116;11.656;2022-08-01T12:50:05;3.30;;;0.70;;
41923;SDS011;27613;48.116;11.656;2022-08-01T12:52:32;1.98;;;0.70;;
41923;SDS011;27613;48.116;11.656;2022-08-01T12:57:42;0.90;;;0.70;;
41923;SDS011;27613;48.116;11.656;2022-08-01T13:02:44;0.65;;;0.60;;
41923;SDS011;27613;48.116;11.656;2022-08-01T13:05:11;1.05;;;0.60;;
41923;SDS011;27613;48.116;11.656;2022-08-01T13:07:47;0.93;;;0.80;;
41923;SDS011;27613;48.116;11.656;2022-08-01T13:10:23;1.00;;;0.70;;
41923;SDS011;27613;48.116;11.656;2022-08-01T13:12:54;1.70;;;1.00;;
41923;SDS011;27613;48.116;11.656;2022-08-01T13:15:24;1.55;;;0.85;;
41923;SDS011;27613;48.116;11.656;2022-08-01T13:17:52;5.90;;;0.80;;
41923;SDS011;27613;48.116;11.656;2022-08-01T13:20:23;2.40;;;1.13;;
41923;SDS011;27613;48.116;11.656;2022-08-01T13:22:50;1.33;;;0.90;;
41923;SDS011;27613;48.116;11.656;2022-08-01T13:25:16;2.65;;;0.90;;
41923;SDS011;27613;48.116;11.656;2022-08-01T13:27:43;0.57;;;0.50;;
41923;SDS011;27613;48.116;11.656;2022-08-01T13:30:16;1.23;;;0.70;;
41923;SDS011;27613;48.116;11.656;2022-08-01T13:32:43;1.98;;;0.80;;
41923;SDS011;27613;48.116;11.656;2022-08-01T13:35:21;2.70;;;0.77;;
41923;SDS011;27613;48.116;11.656;2022-08-01T13:37:47;1.63;;;0.90;;
41923;SDS011;27613;48.116;11.656;2022-08-01T13:40:22;5.60;;;1.05;;
41923;SDS011;27613;48.116;11.656;2022-08-01T13:42:52;1.00;;;0.70;;
41923;SDS011;27613;48.116;11.656;2022-08-01T13:45:19;1.48;;;0.88;;
41923;SDS011;27613;48.116;11.656;2022-08-01T13:47:44;1.00;;;0.70;;
41923;SDS011;27613;48.116;11.656;2022-08-01T13:50:10;4.70;;;0.93;;
41923;SDS011;27613;48.116;11.656;2022-08-01T13:52:36;1.35;;;0.60;;
41923;SDS011;27613;48.116;11.656;2022-08-01T13:55:01;0.70;;;0.70;;
41923;SDS011;27613;48.116;11.656;2022-08-01T13:57:27;0.95;;;0.88;;
41923;SDS011;27613;48.116;11.656;2022-08-01T13:59:53;3.33;;;1.00;;
41923;SDS011;27613;48.116;11.656;2022-08-01T14:02:19;0.95;;;0.60;;
41923;SDS011;27613;48.116;11.656;2022-08-01T14:04:45;2.35;;;1.13;;
41923;SDS011;27613;48.116;11.656;2022-08-01T14:07:11;2.00;;;0.77;;
41923;SDS011;27613;48.116;11.656;2022-08-01T14:09:37;1.17;;;0.88;;
41923;SDS011;27613;48.116;11.656;2022-08-01T14:12:03;0.85;;;0.52;;
41923;SDS011;27613;48.116;11.656;2022-08-01T14:14:29;1.35;;;0.80;;
41923;SDS011;27613;48.116;11.656;2022-08-01T14:16:55;0.60;;;0.60;;
41923;SDS011;27613;48.116;11.656;2022-08-01T14:19:21;1.20;;;0.70;;
41923;SDS011;27613;48.116;11.656;2022-08-01T14:21:47;1.67;;;0.85;;
41923;SDS011;27613;48.116;11.656;2022-08-01T14:24:12;0.63;;;0.55;;
41923;SDS011;27613;48.116;11.656;2022-08-01T14:26:38;0.63;;;0.52;;
41923;SDS011;27613;48.116;11.656;2022-08-01T14:29:03;1.67;;;0.88;;
41923;SDS011;27613;48.116;11.656;2022-08-01T14:31:29;1.50;;;0.88;;
41923;SDS011;27613;48.116;11.656;2022-08-01T14:33:55;1.95;;;1.00;;
41923;SDS011;27613;48.116;11.656;2022-08-01T14:36:20;1.63;;;0.93;;
41923;SDS011;27613;48.116;11.656;2022-08-01T14:38:46;0.98;;;0.73;;
41923;SDS011;27613;48.116;11.656;2022-08-01T14:41:12;1.00;;;0.60;;
41923;SDS011;27613;48.116;11.656;2022-08-01T14:43:41;0.75;;;0.50;;
41923;SDS011;27613;48.116;11.656;2022-08-01T14:46:07;1.17;;;0.80;;
41923;SDS011;27613;48.116;11.656;2022-08-01T14:48:34;2.00;;;0.82;;
41923;SDS011;27613;48.116;11.656;2022-08-01T14:51:00;1.25;;;0.85;;
41923;SDS011;27613;48.116;11.656;2022-08-01T14:53:29;1.58;;;0.73;;
41923;SDS011;27613;48.116;11.656;2022-08-01T14:55:55;3.33;;;0.90;;
41923;SDS011;27613;48.116;11.656;2022-08-01T14:58:21;3.00;;;1.13;;
41923;SDS011;27613;48.116;11.656;2022-08-01T15:00:46;8.65;;;1.02;;
41923;SDS011;27613;48.116;11.656;2022-08-01T15:03:12;1.80;;;1.20;;
41923;SDS011;27613;48.116;11.656;2022-08-01T15:05:38;2.42;;;0.90;;
41923;SDS011;27613;48.116;11.656;2022-08-01T15:08:03;1.60;;;1.02;;
41923;SDS011;27613;48.116;11.656;2022-08-01T15:10:31;0.95;;;0.70;;
41923;SDS011;27613;48.116;11.656;2022-08-01T15:12:57;1.77;;;1.30;;
41923;SDS011;27613;48.116;11.656;2022-08-01T15:15:25;4.07;;;1.35;;
41923;SDS011;27613;48.116;11.656;2022-08-01T15:17:51;3.25;;;1.40;;
41923;SDS011;27613;48.116;11.656;2022-08-01T15:20:17;3.50;;;1.10;;
41923;SDS011;27613;48.116;11.656;2022-08-01T15:22:43;2.25;;;1.17;;
41923;SDS011;27613;48.116;11.656;2022-08-01T15:25:09;3.85;;;1.00;;
41923;SDS011;27613;48.116;11.656;2022-08-01T15:27:35;2.72;;;1.17;;
41923;SDS011;27613;48.116;11.656;2022-08-01T15:30:00;2.58;;;1.30;;
41923;SDS011;27613;48.116;11.656;2022-08-01T15:32:27;3.22;;;1.30;;
41923;SDS011;27613;48.116;11.656;2022-08-01T15:34:53;1.63;;;1.05;;
41923;SDS011;27613;48.116;11.656;2022-08-01T15:37:19;3.90;;;1.25;;
41923;SDS011;27613;48.116;11.656;2022-08-01T15:39:44;2.42;;;1.25;;